LEBZ/BJZ METAR and TAF weather

Enter ICAO airport designator
Station Type Date Time Source
LEBZ METAR 2021/07/28 19:30 UTC NOAA

LEBZ 281930Z 28005KT CAVOK 31/11 Q1010


Station Type Date Time Source
LEBZ Decoded METAR 2021/07/28 19:30 UTC NOAA

Badajoz / Talavera La Real, Spain (LEBZ) 38-53N 006-49W 192M
Jul 28, 2021 - 03:30 PM EDT / 2021.07.28 1930 UTC
Wind: from the W (280 degrees) at 6 MPH (5 KT):0
Visibility: greater than 7 mile(s):0
Temperature: 87 F (31 C)
Dew Point: 51 F (11 C)
Relative Humidity: 29%
Pressure (altimeter): 29.83 in. Hg (1010 hPa)
ob: LEBZ 281930Z 28005KT CAVOK 31/11 Q1010
cycle: 19

Station Type Date Time Source
LEBZ TAF 2021/07/29 03:27 UTC NOAA

TAF LEBZ 290200Z 2903/3003 27007KT CAVOK TX36/2915Z TN17/3003Z

Example: see airport list